createdAt,value
2022-08-23T00:02:22.734Z,20.40
2022-08-23T00:05:07.907Z,20.40
2022-08-23T00:07:38.618Z,20.30
2022-08-23T00:10:10.357Z,20.30
2022-08-23T00:12:37.692Z,20.20
2022-08-23T00:15:05.840Z,20.20
2022-08-23T00:17:35.075Z,20.20
2022-08-23T00:20:06.718Z,20.10
2022-08-23T00:22:34.212Z,20.10
2022-08-23T00:25:01.228Z,20.10
2022-08-23T00:27:28.745Z,20.00
2022-08-23T00:29:56.183Z,20.00
2022-08-23T00:32:32.650Z,20.00
2022-08-23T00:35:00.829Z,20.00
2022-08-23T00:37:29.381Z,19.90
2022-08-23T00:39:56.363Z,20.00
2022-08-23T00:42:54.184Z,19.90
2022-08-23T00:45:51.614Z,19.90
2022-08-23T00:48:18.539Z,19.80
2022-08-23T00:51:08.132Z,19.80
2022-08-23T00:53:44.370Z,19.80
2022-08-23T00:56:13.296Z,19.70
2022-08-23T00:58:40.182Z,19.70
2022-08-23T01:01:07.829Z,19.70
2022-08-23T01:03:39.167Z,19.60
2022-08-23T01:06:32.453Z,19.70
2022-08-23T01:09:05.913Z,19.70
2022-08-23T01:11:49.550Z,19.70
2022-08-23T01:14:25.881Z,19.70
2022-08-23T01:17:05.218Z,19.70
2022-08-23T01:19:43.945Z,19.70
2022-08-23T01:22:20.763Z,19.60
2022-08-23T01:25:07.720Z,19.60
2022-08-23T01:27:36.315Z,19.60
2022-08-23T01:30:06.809Z,19.60
2022-08-23T01:32:37.785Z,19.50
2022-08-23T01:35:05.163Z,19.50
2022-08-23T01:37:32.921Z,19.50
2022-08-23T01:39:59.831Z,19.50
2022-08-23T01:42:27.329Z,19.40
2022-08-23T01:44:54.279Z,19.40
2022-08-23T01:47:21.161Z,19.30
2022-08-23T01:49:48.246Z,19.30
2022-08-23T01:52:15.435Z,19.30
2022-08-23T01:54:42.372Z,19.20
2022-08-23T01:57:11.017Z,19.20
2022-08-23T01:59:38.293Z,19.20
2022-08-23T02:02:05.776Z,19.10
2022-08-23T02:04:32.679Z,19.10
2022-08-23T02:06:59.801Z,19.10
2022-08-23T02:09:26.641Z,19.10
2022-08-23T02:11:54.761Z,19.00
2022-08-23T02:14:22.018Z,19.00
2022-08-23T02:17:03.748Z,19.00
2022-08-23T02:19:33.165Z,18.90
2022-08-23T02:22:00.416Z,18.90
2022-08-23T02:24:27.535Z,18.90
2022-08-23T02:26:57.120Z,18.90
2022-08-23T02:29:25.990Z,18.80
2022-08-23T02:31:53.253Z,18.80
2022-08-23T02:34:20.322Z,18.90
2022-08-23T02:36:47.475Z,18.80
2022-08-23T02:39:16.913Z,18.70
2022-08-23T02:41:44.256Z,18.70
2022-08-23T02:44:11.697Z,18.70
2022-08-23T02:46:39.653Z,18.70
2022-08-23T02:49:07.033Z,18.60
2022-08-23T02:51:34.504Z,18.60
2022-08-23T02:54:01.528Z,18.60
2022-08-23T02:56:28.452Z,18.60
2022-08-23T02:58:55.451Z,18.60
2022-08-23T03:01:29.504Z,18.60
2022-08-23T03:03:57.440Z,18.60
2022-08-23T03:06:26.498Z,18.60
2022-08-23T03:08:55.316Z,18.60
2022-08-23T03:11:24.744Z,18.50
2022-08-23T03:13:52.898Z,18.50
2022-08-23T03:16:20.701Z,18.50
2022-08-23T03:18:49.068Z,18.50
2022-08-23T03:21:16.701Z,18.50
2022-08-23T03:23:43.808Z,18.50
2022-08-23T03:26:12.438Z,18.50
2022-08-23T03:28:40.910Z,18.40
2022-08-23T03:31:08.928Z,18.70
2022-08-23T03:33:36.909Z,18.40
2022-08-23T03:36:06.397Z,18.30
2022-08-23T03:38:34.024Z,18.30
2022-08-23T03:41:01.241Z,18.30
2022-08-23T03:43:28.898Z,18.30
2022-08-23T03:45:55.838Z,18.20
2022-08-23T03:48:22.723Z,18.20
2022-08-23T03:50:49.694Z,18.20
2022-08-23T03:53:23.692Z,18.10
2022-08-23T03:55:53.237Z,18.10
2022-08-23T03:58:21.532Z,18.10
2022-08-23T04:00:48.710Z,18.10
2022-08-23T04:03:15.758Z,18.10
2022-08-23T04:05:42.617Z,18.10
2022-08-23T04:08:13.875Z,18.00
2022-08-23T04:10:41.307Z,18.00
2022-08-23T04:13:09.101Z,18.00
2022-08-23T04:15:37.196Z,18.00
2022-08-23T04:18:04.733Z,18.00
2022-08-23T04:20:32.979Z,18.00
2022-08-23T04:22:59.909Z,18.00
2022-08-23T04:25:34.244Z,18.00
2022-08-23T04:28:02.568Z,17.90
2022-08-23T04:30:29.871Z,18.00
2022-08-23T04:32:57.355Z,18.00
2022-08-23T04:35:25.518Z,18.00
2022-08-23T04:37:53.528Z,18.00
2022-08-23T04:40:38.855Z,18.10
2022-08-23T04:43:08.199Z,18.20
2022-08-23T04:45:38.977Z,18.40
2022-08-23T04:48:06.678Z,18.80
2022-08-23T04:50:38.995Z,19.40
2022-08-23T04:53:06.283Z,20.00
2022-08-23T04:55:36.282Z,20.60
2022-08-23T04:58:04.476Z,21.20
2022-08-23T05:00:31.617Z,21.90
2022-08-23T05:02:58.488Z,22.50
2022-08-23T05:05:27.179Z,23.20
2022-08-23T05:07:54.871Z,23.70
2022-08-23T05:10:22.061Z,24.30
2022-08-23T05:12:49.046Z,24.80
2022-08-23T05:15:16.011Z,25.30
2022-08-23T05:17:42.901Z,25.90
2022-08-23T05:20:10.972Z,26.50
2022-08-23T05:22:40.902Z,26.90
2022-08-23T05:25:08.348Z,27.60
2022-08-23T05:27:35.856Z,28.20
2022-08-23T05:30:03.144Z,28.70
2022-08-23T05:32:33.287Z,29.10
2022-08-23T05:35:00.942Z,29.70
2022-08-23T05:37:27.990Z,30.20
2022-08-23T05:39:55.009Z,30.50
2022-08-23T05:42:22.217Z,30.80
2022-08-23T05:44:49.123Z,31.20
2022-08-23T05:47:17.907Z,31.50
2022-08-23T05:49:51.720Z,31.90
2022-08-23T05:52:18.611Z,32.50
2022-08-23T05:54:45.434Z,33.00
2022-08-23T05:57:12.361Z,33.30
2022-08-23T05:59:41.666Z,33.90
2022-08-23T06:02:08.804Z,34.60
2022-08-23T06:04:36.164Z,35.30
2022-08-23T06:07:03.314Z,35.90
2022-08-23T06:09:30.271Z,36.30
2022-08-23T06:11:58.709Z,36.50
2022-08-23T06:14:25.650Z,37.00
2022-08-23T06:16:56.109Z,37.40
2022-08-23T06:19:24.069Z,37.90
2022-08-23T06:21:51.951Z,38.40
2022-08-23T06:24:20.013Z,38.70
2022-08-23T06:26:47.435Z,39.10
2022-08-23T06:29:17.328Z,39.50
2022-08-23T06:31:47.966Z,39.50
2022-08-23T06:34:22.473Z,39.60
2022-08-23T06:36:52.838Z,39.90
2022-08-23T06:39:22.202Z,40.10
2022-08-23T06:41:49.419Z,40.50
2022-08-23T06:44:18.538Z,41.10
2022-08-23T06:46:47.931Z,41.60
2022-08-23T06:49:15.245Z,42.10
2022-08-23T06:51:46.017Z,42.40
2022-08-23T06:54:15.064Z,42.40
2022-08-23T06:56:43.847Z,42.70
2022-08-23T06:59:12.135Z,43.00
2022-08-23T07:01:45.696Z,43.30
2022-08-23T07:04:16.163Z,43.70
2022-08-23T07:06:43.477Z,43.80
2022-08-23T07:09:10.432Z,44.00
2022-08-23T07:11:37.371Z,44.20
2022-08-23T07:14:06.757Z,44.40
2022-08-23T07:16:36.060Z,44.40
2022-08-23T07:19:03.849Z,44.10
2022-08-23T07:21:31.407Z,44.00
2022-08-23T07:23:58.429Z,44.10
2022-08-23T07:26:26.022Z,44.30
2022-08-23T07:28:57.079Z,44.60
2022-08-23T07:31:27.464Z,44.70
2022-08-23T07:33:59.314Z,44.70
2022-08-23T07:36:27.964Z,44.50
2022-08-23T07:38:55.704Z,43.90
2022-08-23T07:41:32.780Z,42.70
2022-08-23T07:44:04.126Z,40.90
2022-08-23T07:46:33.296Z,39.10
2022-08-23T07:49:01.415Z,37.30
2022-08-23T07:51:31.206Z,35.90
2022-08-23T07:54:00.630Z,34.70
2022-08-23T07:56:27.870Z,33.80
2022-08-23T07:58:54.980Z,33.10
2022-08-23T08:01:25.181Z,32.40
2022-08-23T08:03:54.721Z,31.80
2022-08-23T08:06:28.063Z,31.30
2022-08-23T08:08:56.260Z,30.90
2022-08-23T08:11:30.924Z,30.40
2022-08-23T08:14:04.538Z,30.00
2022-08-23T08:16:44.253Z,29.60
2022-08-23T08:19:12.697Z,29.30
2022-08-23T08:21:42.231Z,29.00
2022-08-23T08:24:12.744Z,28.90
2022-08-23T08:26:41.680Z,28.80
2022-08-23T08:29:11.899Z,28.80
2022-08-23T08:31:41.028Z,28.70
2022-08-23T08:34:08.769Z,28.60
2022-08-23T08:36:45.416Z,28.50
2022-08-23T08:39:18.667Z,28.40
2022-08-23T08:41:45.494Z,28.30
2022-08-23T08:44:22.553Z,28.20
2022-08-23T08:46:53.195Z,28.20
2022-08-23T08:49:39.118Z,28.10
2022-08-23T08:52:17.271Z,27.90
2022-08-23T08:54:48.251Z,27.90
2022-08-23T08:57:25.341Z,27.70
2022-08-23T09:00:02.216Z,27.60
2022-08-23T09:02:33.778Z,27.60
2022-08-23T09:05:21.991Z,27.70
2022-08-23T09:08:10.972Z,27.70
2022-08-23T09:10:50.761Z,27.60
2022-08-23T09:13:57.017Z,27.50
2022-08-23T09:16:53.487Z,27.40
2022-08-23T09:19:22.665Z,27.40
2022-08-23T09:22:03.059Z,27.40
2022-08-23T09:24:30.863Z,27.40
2022-08-23T09:26:58.798Z,27.50
2022-08-23T09:29:32.631Z,27.50
2022-08-23T09:32:06.097Z,27.40
2022-08-23T09:34:35.057Z,27.50
2022-08-23T09:37:23.866Z,27.50
2022-08-23T09:40:13.133Z,27.60
2022-08-23T09:42:41.491Z,27.70
2022-08-23T09:45:35.196Z,27.80
2022-08-23T09:48:04.754Z,27.80
2022-08-23T09:50:40.062Z,27.80
2022-08-23T09:53:10.653Z,27.80
2022-08-23T09:55:42.231Z,27.80
2022-08-23T09:58:18.588Z,27.80
2022-08-23T10:01:01.031Z,27.80
2022-08-23T10:03:29.573Z,27.80
2022-08-23T10:05:59.596Z,27.80
2022-08-23T10:08:39.642Z,27.80
2022-08-23T10:11:12.823Z,27.80
2022-08-23T10:13:42.933Z,27.80
2022-08-23T10:16:19.020Z,27.80
2022-08-23T10:18:51.295Z,27.90
2022-08-23T10:21:25.274Z,27.90
2022-08-23T10:24:18.247Z,27.90
2022-08-23T10:27:28.591Z,28.00
2022-08-23T10:30:15.273Z,27.90
2022-08-23T10:32:56.070Z,28.00
2022-08-23T10:35:34.951Z,28.00
2022-08-23T10:38:38.207Z,28.10
2022-08-23T10:41:18.523Z,28.10
2022-08-23T10:43:54.587Z,28.20
2022-08-23T10:46:22.946Z,28.30
2022-08-23T10:49:00.363Z,28.30
2022-08-23T10:51:37.795Z,28.30
2022-08-23T10:54:10.136Z,28.30
2022-08-23T10:56:42.948Z,28.30
2022-08-23T10:59:24.072Z,28.30
2022-08-23T11:02:45.661Z,28.30
2022-08-23T11:05:31.013Z,28.40
2022-08-23T11:08:08.707Z,28.30
2022-08-23T11:10:39.166Z,28.40
2022-08-23T11:13:23.743Z,28.30
2022-08-23T11:16:01.635Z,28.40
2022-08-23T11:18:39.930Z,28.40
2022-08-23T11:21:10.867Z,28.50
2022-08-23T11:23:42.606Z,28.40
2022-08-23T11:26:30.295Z,28.40
2022-08-23T11:29:23.394Z,28.30
2022-08-23T11:31:58.601Z,28.30
2022-08-23T11:34:41.162Z,28.30
2022-08-23T11:37:20.318Z,28.40
2022-08-23T11:40:02.110Z,28.40
2022-08-23T11:42:38.247Z,28.50
2022-08-23T11:45:30.315Z,28.50
2022-08-23T11:48:22.726Z,28.50
2022-08-23T11:51:01.841Z,28.50
2022-08-23T11:53:44.762Z,28.50
2022-08-23T11:56:31.836Z,28.50
2022-08-23T11:59:20.223Z,28.50
2022-08-23T12:01:47.472Z,28.40
2022-08-23T12:04:38.827Z,28.40
2022-08-23T12:07:12.773Z,28.40
2022-08-23T12:09:43.047Z,28.50
2022-08-23T12:12:25.569Z,28.50
2022-08-23T12:14:58.855Z,28.50
2022-08-23T12:17:26.141Z,28.50
2022-08-23T12:20:13.175Z,28.40
2022-08-23T12:23:05.759Z,28.40
2022-08-23T12:25:33.727Z,28.40
2022-08-23T12:28:08.560Z,28.30
2022-08-23T12:31:13.589Z,28.40
2022-08-23T12:34:02.965Z,28.50
2022-08-23T12:36:43.658Z,28.60
2022-08-23T12:39:37.752Z,28.60
2022-08-23T12:42:17.732Z,28.70
2022-08-23T12:44:46.886Z,28.60
2022-08-23T12:47:19.934Z,28.60
2022-08-23T12:49:57.899Z,28.70
2022-08-23T12:52:29.091Z,28.70
2022-08-23T12:54:57.943Z,28.60
2022-08-23T12:57:32.181Z,28.60
2022-08-23T13:00:16.317Z,28.70
2022-08-23T13:02:53.360Z,28.70
2022-08-23T13:05:46.713Z,28.70
2022-08-23T13:08:38.436Z,28.70
2022-08-23T13:11:08.626Z,28.60
2022-08-23T13:13:39.685Z,28.60
2022-08-23T13:16:37.479Z,28.70
2022-08-23T13:19:32.016Z,28.70
2022-08-23T13:22:32.095Z,28.60
2022-08-23T13:25:31.885Z,28.60
2022-08-23T13:28:04.947Z,28.60
2022-08-23T13:30:37.254Z,28.60
2022-08-23T13:33:04.258Z,28.70
2022-08-23T13:35:36.390Z,28.70
2022-08-23T13:38:33.722Z,28.80
2022-08-23T13:41:08.791Z,28.80
2022-08-23T13:43:45.003Z,28.80
2022-08-23T13:46:32.234Z,28.80
2022-08-23T13:49:02.420Z,28.70
2022-08-23T13:51:38.608Z,28.70
2022-08-23T13:54:12.179Z,28.70
2022-08-23T13:56:53.326Z,28.80
2022-08-23T13:59:32.961Z,28.80
2022-08-23T14:02:01.908Z,28.80
2022-08-23T14:04:28.880Z,28.80
2022-08-23T14:06:55.814Z,28.90
2022-08-23T14:09:23.132Z,28.90
2022-08-23T14:11:55.152Z,28.90
2022-08-23T14:14:22.157Z,28.90
2022-08-23T14:16:49.195Z,28.90
2022-08-23T14:19:16.410Z,28.90
2022-08-23T14:21:45.130Z,28.90
2022-08-23T14:24:12.194Z,28.90
2022-08-23T14:26:39.186Z,28.90
2022-08-23T14:29:22.329Z,28.90
2022-08-23T14:31:51.745Z,28.90
2022-08-23T14:34:19.325Z,28.90
2022-08-23T14:39:33.521Z,28.90
2022-08-23T14:42:00.411Z,29.00
2022-08-23T14:44:33.210Z,29.00
2022-08-23T14:47:05.007Z,29.00
2022-08-23T14:49:32.021Z,29.00
2022-08-23T14:51:59.013Z,29.00
2022-08-23T14:54:26.393Z,29.00
2022-08-23T14:56:53.872Z,29.00
2022-08-23T14:59:21.205Z,29.00
2022-08-23T15:01:50.251Z,29.00
2022-08-23T15:04:23.329Z,29.00
2022-08-23T15:09:38.677Z,29.00
2022-08-23T15:12:57.042Z,29.00
2022-08-23T15:14:53.364Z,28.90
2022-08-23T15:17:20.445Z,29.00
2022-08-23T15:19:47.685Z,28.90
2022-08-23T15:22:18.764Z,28.90
2022-08-23T15:24:49.279Z,28.90
2022-08-23T15:27:17.578Z,28.90
2022-08-23T15:29:44.569Z,29.00
2022-08-23T15:32:12.527Z,28.90
2022-08-23T15:34:46.240Z,28.90
2022-08-23T15:37:14.202Z,28.90
2022-08-23T15:39:42.490Z,28.80
2022-08-23T15:42:09.544Z,28.80
2022-08-23T15:44:36.593Z,28.80
2022-08-23T15:47:12.509Z,28.80
2022-08-23T15:49:39.739Z,28.70
2022-08-23T15:52:06.624Z,28.70
2022-08-23T15:54:33.510Z,28.70
2022-08-23T15:57:00.487Z,28.70
2022-08-23T15:59:28.062Z,28.60
2022-08-23T16:01:54.982Z,28.60
2022-08-23T16:04:21.969Z,28.60
2022-08-23T16:06:48.893Z,28.60
2022-08-23T16:09:23.014Z,28.60
2022-08-23T16:11:50.887Z,28.50
2022-08-23T16:14:18.172Z,28.60
2022-08-23T16:16:48.357Z,28.50
2022-08-23T16:19:16.732Z,28.50
2022-08-23T16:21:44.435Z,28.50
2022-08-23T16:24:11.831Z,28.50
2022-08-23T16:26:43.353Z,28.50
2022-08-23T16:29:17.105Z,28.40
2022-08-23T16:31:45.841Z,28.40
2022-08-23T16:34:20.980Z,28.40
2022-08-23T16:36:53.650Z,28.40
2022-08-23T16:39:22.413Z,28.30
2022-08-23T16:41:49.597Z,28.30
2022-08-23T16:44:17.384Z,28.30
2022-08-23T16:46:45.464Z,28.30
2022-08-23T16:49:14.688Z,28.20
2022-08-23T16:51:42.651Z,28.20
2022-08-23T16:54:10.021Z,28.20
2022-08-23T16:56:38.604Z,28.20
2022-08-23T16:59:07.841Z,28.20
2022-08-23T17:01:56.858Z,28.10
2022-08-23T17:04:25.298Z,28.10
2022-08-23T17:06:58.749Z,28.10
2022-08-23T17:09:28.336Z,28.10
2022-08-23T17:11:58.131Z,28.00
2022-08-23T17:14:26.116Z,27.90
2022-08-23T17:16:53.498Z,27.90
2022-08-23T17:19:20.504Z,27.80
2022-08-23T17:21:47.596Z,27.80
2022-08-23T17:24:14.599Z,27.80
2022-08-23T17:26:42.063Z,27.70
2022-08-23T17:29:09.448Z,27.70
2022-08-23T17:31:37.777Z,27.70
2022-08-23T17:34:06.935Z,27.60
2022-08-23T17:36:40.800Z,27.50
2022-08-23T17:39:12.191Z,27.50
2022-08-23T17:41:44.991Z,27.40
2022-08-23T17:44:12.760Z,27.40
2022-08-23T17:46:42.175Z,27.40
2022-08-23T17:49:11.138Z,27.30
2022-08-23T17:51:41.019Z,27.30
2022-08-23T17:54:09.996Z,27.30
2022-08-23T17:56:37.970Z,27.20
2022-08-23T17:59:08.592Z,27.10
2022-08-23T18:01:36.011Z,27.00
2022-08-23T18:04:04.253Z,27.00
2022-08-23T18:06:31.503Z,26.90
2022-08-23T18:08:59.421Z,26.80
2022-08-23T18:11:26.391Z,26.80
2022-08-23T18:13:53.542Z,26.70
2022-08-23T18:16:21.848Z,26.70
2022-08-23T18:18:49.109Z,26.60
2022-08-23T18:21:16.070Z,26.50
2022-08-23T18:23:43.628Z,26.40
2022-08-23T18:26:32.960Z,26.30
2022-08-23T18:29:01.192Z,26.30
2022-08-23T18:31:28.799Z,26.20
2022-08-23T18:34:00.194Z,26.10
2022-08-23T18:36:29.228Z,26.00
2022-08-23T18:38:56.702Z,25.90
2022-08-23T18:41:23.876Z,25.90
2022-08-23T18:43:51.375Z,25.90
2022-08-23T18:46:18.980Z,25.80
2022-08-23T18:48:47.961Z,25.70
2022-08-23T18:51:22.284Z,25.60
2022-08-23T18:53:49.350Z,25.60
2022-08-23T18:56:16.503Z,25.60
2022-08-23T18:58:43.898Z,25.50
2022-08-23T19:01:26.271Z,25.50
2022-08-23T19:03:54.255Z,25.40
2022-08-23T19:06:22.104Z,25.30
2022-08-23T19:08:49.091Z,25.30
2022-08-23T19:11:16.299Z,25.20
2022-08-23T19:13:43.409Z,25.10
2022-08-23T19:16:13.283Z,25.10
2022-08-23T19:18:41.789Z,25.00
2022-08-23T19:21:08.854Z,25.00
2022-08-23T19:23:35.981Z,24.90
2022-08-23T19:26:05.834Z,24.90
2022-08-23T19:28:36.362Z,24.90
2022-08-23T19:31:03.542Z,24.80
2022-08-23T19:33:30.750Z,24.80
2022-08-23T19:35:59.651Z,24.70
2022-08-23T19:38:27.861Z,24.70
2022-08-23T19:41:00.885Z,24.70
2022-08-23T19:43:27.903Z,24.60
2022-08-23T19:45:59.710Z,24.50
2022-08-23T19:48:26.790Z,24.50
2022-08-23T19:50:53.754Z,24.50
2022-08-23T19:53:20.828Z,24.40
2022-08-23T19:55:48.011Z,24.40
2022-08-23T19:58:17.913Z,24.30
2022-08-23T20:00:45.742Z,24.30
2022-08-23T20:03:12.875Z,24.30
2022-08-23T20:05:39.931Z,24.20
2022-08-23T20:08:09.699Z,24.20
2022-08-23T20:10:36.643Z,24.10
2022-08-23T20:13:03.981Z,24.10
2022-08-23T20:15:31.178Z,24.10
2022-08-23T20:18:00.429Z,24.00
2022-08-23T20:20:27.390Z,24.00
2022-08-23T20:23:12.851Z,23.90
2022-08-23T20:25:39.792Z,23.80
2022-08-23T20:28:08.314Z,23.80
2022-08-23T20:30:37.472Z,23.80
2022-08-23T20:33:05.015Z,23.80
2022-08-23T20:35:32.031Z,23.70
2022-08-23T20:37:59.041Z,23.70
2022-08-23T20:40:26.164Z,23.60
2022-08-23T20:42:53.186Z,23.60
2022-08-23T20:45:20.536Z,23.60
2022-08-23T20:47:47.484Z,23.50
2022-08-23T20:50:14.559Z,23.50
2022-08-23T20:52:41.520Z,23.50
2022-08-23T20:55:10.524Z,23.40
2022-08-23T20:57:38.810Z,23.40
2022-08-23T21:00:07.724Z,23.40
2022-08-23T21:02:34.752Z,23.40
2022-08-23T21:05:01.925Z,23.30
2022-08-23T21:07:33.279Z,23.30
2022-08-23T21:10:00.714Z,23.20
2022-08-23T21:12:27.857Z,23.20
2022-08-23T21:14:56.769Z,23.20
2022-08-23T21:17:23.820Z,23.10
2022-08-23T21:19:50.740Z,23.10
2022-08-23T21:22:17.784Z,23.00
2022-08-23T21:24:44.744Z,23.00
2022-08-23T21:27:11.657Z,23.00
2022-08-23T21:29:38.869Z,23.00
2022-08-23T21:32:06.892Z,23.00
2022-08-23T21:34:34.058Z,22.90
2022-08-23T21:37:01.017Z,22.90
2022-08-23T21:39:27.958Z,22.90
2022-08-23T21:41:56.094Z,22.90
2022-08-23T21:44:24.595Z,22.80
2022-08-23T21:46:52.060Z,22.80
2022-08-23T21:49:20.944Z,22.80
2022-08-23T21:51:49.073Z,22.70
2022-08-23T21:54:18.255Z,22.70
2022-08-23T21:56:45.968Z,22.70
2022-08-23T21:59:16.721Z,22.60
2022-08-23T22:01:44.492Z,22.60
2022-08-23T22:04:13.704Z,22.60
2022-08-23T22:06:42.747Z,22.60
2022-08-23T22:09:13.511Z,22.50
2022-08-23T22:11:43.062Z,22.50
2022-08-23T22:14:12.870Z,22.40
2022-08-23T22:16:41.210Z,22.40
2022-08-23T22:19:08.123Z,22.40
2022-08-23T22:21:35.376Z,22.30
2022-08-23T22:24:02.967Z,22.30
2022-08-23T22:26:29.869Z,22.20
2022-08-23T22:28:57.172Z,22.30
2022-08-23T22:31:24.470Z,22.20
2022-08-23T22:33:52.978Z,22.20
2022-08-23T22:36:22.374Z,22.20
2022-08-23T22:38:50.576Z,22.10
2022-08-23T22:41:19.439Z,22.10
2022-08-23T22:43:46.914Z,22.10
2022-08-23T22:46:13.934Z,22.10
2022-08-23T22:48:40.867Z,22.00
2022-08-23T22:51:35.122Z,22.00
2022-08-23T22:54:06.769Z,22.00
2022-08-23T22:56:47.083Z,22.00
2022-08-23T22:59:16.097Z,21.90
2022-08-23T23:01:55.347Z,21.90
2022-08-23T23:04:26.425Z,21.90
2022-08-23T23:06:55.029Z,21.80
2022-08-23T23:09:22.089Z,21.80
2022-08-23T23:11:49.134Z,21.70
2022-08-23T23:14:18.061Z,21.70
2022-08-23T23:16:45.185Z,21.70
2022-08-23T23:19:30.517Z,21.70
2022-08-23T23:21:59.246Z,21.70
2022-08-23T23:24:33.336Z,21.60
2022-08-23T23:27:00.991Z,21.60
2022-08-23T23:29:30.698Z,21.60
2022-08-23T23:31:58.394Z,21.60
2022-08-23T23:34:27.820Z,21.60
2022-08-23T23:36:58.955Z,21.60
2022-08-23T23:39:27.366Z,21.50
2022-08-23T23:41:55.036Z,21.50
2022-08-23T23:44:29.935Z,21.50
2022-08-23T23:46:58.556Z,21.50
2022-08-23T23:49:32.514Z,21.40
2022-08-23T23:52:01.762Z,21.40
2022-08-23T23:54:28.858Z,21.40
2022-08-23T23:56:55.791Z,21.40
2022-08-23T23:59:22.731Z,21.40
